createdAt,value
2018-02-22T00:00:44.981Z,0
2018-02-22T00:01:55.018Z,0
2018-02-22T00:03:05.089Z,0
2018-02-22T00:04:15.133Z,0
2018-02-22T00:05:24.933Z,0
2018-02-22T00:06:34.475Z,0
2018-02-22T00:07:44.283Z,0
2018-02-22T00:08:54.349Z,0
2018-02-22T00:10:04.156Z,0
2018-02-22T00:11:13.937Z,0
2018-02-22T00:12:23.468Z,0
2018-02-22T00:13:33.305Z,0
2018-02-22T00:14:42.300Z,0
2018-02-22T00:15:52.353Z,0
2018-02-22T00:17:02.450Z,0
2018-02-22T00:18:12.497Z,0
2018-02-22T00:19:22.307Z,0
2018-02-22T00:20:32.356Z,0
2018-02-22T00:21:41.885Z,0
2018-02-22T00:22:51.679Z,0
2018-02-22T00:24:01.736Z,0
2018-02-22T00:25:11.527Z,0
2018-02-22T00:26:21.578Z,0
2018-02-22T00:27:31.362Z,0
2018-02-22T00:28:41.395Z,0
2018-02-22T00:29:51.180Z,0
2018-02-22T00:31:00.967Z,0
2018-02-22T00:32:11.074Z,0
2018-02-22T00:33:21.136Z,0
2018-02-22T00:34:30.924Z,0
2018-02-22T00:35:40.982Z,0
2018-02-22T00:36:50.778Z,0
2018-02-22T00:38:00.316Z,0
2018-02-22T00:39:10.153Z,0
2018-02-22T00:40:20.196Z,0
2018-02-22T00:41:30.266Z,0
2018-02-22T00:42:40.064Z,0
2018-02-22T00:43:49.610Z,0
2018-02-22T00:44:59.421Z,0
2018-02-22T00:46:09.205Z,0
2018-02-22T00:47:19.268Z,0
2018-02-22T00:48:29.075Z,0
2018-02-22T00:49:38.860Z,0
2018-02-22T00:50:48.705Z,0
2018-02-22T00:51:58.784Z,0
2018-02-22T00:53:08.893Z,0
2018-02-22T00:54:18.696Z,0
2018-02-22T00:55:28.742Z,0
2018-02-22T00:56:38.539Z,0
2018-02-22T00:57:48.612Z,0
2018-02-22T00:58:58.385Z,0
2018-02-22T01:00:08.878Z,0
2018-02-22T01:01:18.928Z,0
2018-02-22T01:02:28.767Z,0
2018-02-22T01:03:38.336Z,0
2018-02-22T01:04:48.393Z,0
2018-02-22T01:05:58.185Z,0
2018-02-22T01:07:08.242Z,0
2018-02-22T01:08:18.088Z,0
2018-02-22T01:09:27.878Z,0
2018-02-22T01:10:37.936Z,0
2018-02-22T01:11:48.008Z,0
2018-02-22T01:12:58.084Z,0
2018-02-22T01:14:08.185Z,0
2018-02-22T01:15:17.980Z,0
2018-02-22T01:16:27.779Z,0
2018-02-22T01:17:37.317Z,0
2018-02-22T01:18:47.111Z,0
2018-02-22T01:19:57.164Z,0
2018-02-22T01:21:06.951Z,0
2018-02-22T01:22:16.978Z,0
2018-02-22T01:23:25.976Z,0
2018-02-22T01:24:36.025Z,0
2018-02-22T01:25:46.074Z,0
2018-02-22T01:26:55.333Z,0
2018-02-22T01:28:05.141Z,0
2018-02-22T01:29:15.187Z,0
2018-02-22T01:30:25.267Z,0
2018-02-22T01:31:35.396Z,0
2018-02-22T01:32:45.461Z,0
2018-02-22T01:33:55.312Z,0
2018-02-22T01:35:05.118Z,0
2018-02-22T01:36:15.217Z,0
2018-02-22T01:37:24.740Z,0
2018-02-22T01:38:34.277Z,0
2018-02-22T01:39:44.071Z,0
2018-02-22T01:40:54.126Z,0
2018-02-22T01:42:04.192Z,0
2018-02-22T01:43:13.986Z,0
2018-02-22T01:44:24.039Z,0
2018-02-22T01:45:34.121Z,0
2018-02-22T01:46:43.905Z,0
2018-02-22T01:47:53.695Z,0
2018-02-22T01:49:03.265Z,0
2018-02-22T01:50:13.320Z,0
2018-02-22T01:51:23.108Z,0
2018-02-22T01:52:33.151Z,0
2018-02-22T01:53:42.959Z,0
2018-02-22T01:54:52.762Z,0
2018-02-22T01:56:02.298Z,0
2018-02-22T01:57:12.359Z,0
2018-02-22T01:58:22.454Z,0
2018-02-22T01:59:32.240Z,0
2018-02-22T02:00:42.047Z,0
2018-02-22T02:01:51.831Z,0
2018-02-22T02:03:01.938Z,0
2018-02-22T02:04:11.998Z,0
2018-02-22T02:05:22.048Z,0
2018-02-22T02:06:31.580Z,0
2018-02-22T02:07:41.642Z,0
2018-02-22T02:08:51.708Z,0
2018-02-22T02:10:01.761Z,0
2018-02-22T02:11:11.818Z,0
2018-02-22T02:12:21.650Z,0
2018-02-22T02:13:31.701Z,0
2018-02-22T02:14:41.738Z,0
2018-02-22T02:15:51.539Z,0
2018-02-22T02:17:01.345Z,0
2018-02-22T02:18:11.418Z,0
2018-02-22T02:19:21.236Z,0
2018-02-22T02:20:31.285Z,0
2018-02-22T02:21:41.344Z,0
2018-02-22T02:22:51.396Z,0
2018-02-22T02:24:01.436Z,0
2018-02-22T02:25:10.983Z,0
2018-02-22T02:26:20.784Z,0
2018-02-22T02:27:30.575Z,0
2018-02-22T02:28:40.371Z,0
2018-02-22T02:29:50.444Z,0
2018-02-22T02:31:00.259Z,0
2018-02-22T02:32:10.091Z,0
2018-02-22T02:33:19.889Z,0
2018-02-22T02:34:29.162Z,0
2018-02-22T02:35:38.694Z,0
2018-02-22T02:36:48.488Z,0
2018-02-22T02:37:58.562Z,0
2018-02-22T02:39:08.629Z,0
2018-02-22T02:40:18.698Z,0
2018-02-22T02:41:28.749Z,0
2018-02-22T02:42:38.010Z,0
2018-02-22T02:43:47.795Z,0
2018-02-22T02:44:57.585Z,0
2018-02-22T02:46:07.648Z,0
2018-02-22T02:47:17.453Z,0
2018-02-22T02:48:27.530Z,0
2018-02-22T02:49:37.615Z,0
2018-02-22T02:50:47.694Z,0
2018-02-22T02:51:57.769Z,0
2018-02-22T02:53:07.589Z,0
2018-02-22T02:54:17.655Z,0
2018-02-22T02:55:27.449Z,0
2018-02-22T02:56:37.521Z,0
2018-02-22T02:57:47.314Z,0
2018-02-22T02:58:57.104Z,0
2018-02-22T03:00:06.916Z,0
2018-02-22T03:01:16.643Z,0
2018-02-22T03:02:26.707Z,0
2018-02-22T03:03:36.785Z,0
2018-02-22T03:04:46.831Z,0
2018-02-22T03:05:56.905Z,0
2018-02-22T03:37:16.503Z,0
2018-02-22T03:38:26.548Z,0
2018-02-22T03:39:36.342Z,0
2018-02-22T03:40:46.146Z,0
2018-02-22T03:41:56.194Z,0
2018-02-22T03:43:05.985Z,0
2018-02-22T03:44:15.818Z,0
2018-02-22T03:45:25.053Z,0
2018-02-22T03:46:34.836Z,0
2018-02-22T03:47:44.887Z,0
2018-02-22T03:48:54.947Z,0
2018-02-22T03:50:05.009Z,0
2018-02-22T03:51:14.556Z,0
2018-02-22T03:52:24.629Z,0
2018-02-22T03:53:34.674Z,0
2018-02-22T03:54:44.747Z,0
2018-02-22T03:55:54.531Z,0
2018-02-22T03:57:04.571Z,0
2018-02-22T03:58:14.356Z,0
2018-02-22T03:59:23.874Z,0
2018-02-22T04:00:33.915Z,0
2018-02-22T04:01:44.115Z,0
2018-02-22T04:02:53.977Z,0
2018-02-22T04:04:03.782Z,0
2018-02-22T04:05:13.831Z,0
2018-02-22T04:06:23.877Z,0
2018-02-22T04:07:33.661Z,0
2018-02-22T04:08:43.511Z,0
2018-02-22T04:09:53.306Z,0
2018-02-22T04:11:03.348Z,0
2018-02-22T04:12:13.443Z,0
2018-02-22T04:13:23.236Z,0
2018-02-22T04:14:33.079Z,0
2018-02-22T04:15:43.126Z,0
2018-02-22T04:16:52.911Z,0
2018-02-22T04:18:02.968Z,0
2018-02-22T04:19:12.500Z,0
2018-02-22T04:20:22.304Z,0
2018-02-22T04:21:32.108Z,0
2018-02-22T04:22:42.166Z,0
2018-02-22T04:23:51.959Z,0
2018-02-22T04:25:01.758Z,0
2018-02-22T04:26:12.720Z,0
2018-02-22T04:27:23.788Z,0
2018-02-22T04:28:33.571Z,0
2018-02-22T04:29:43.358Z,0
2018-02-22T04:30:53.145Z,0
2018-02-22T04:32:02.671Z,0
2018-02-22T04:33:12.516Z,0
2018-02-22T04:34:22.574Z,0
2018-02-22T04:35:32.097Z,0
2018-02-22T04:36:41.892Z,0
2018-02-22T04:37:51.980Z,0
2018-02-22T04:39:02.040Z,0
2018-02-22T04:40:11.587Z,0
2018-02-22T04:41:21.638Z,0
2018-02-22T04:42:31.700Z,0
2018-02-22T04:43:41.523Z,0
2018-02-22T04:44:51.069Z,0
2018-02-22T04:46:00.590Z,0
2018-02-22T04:47:09.861Z,0
2018-02-22T04:48:19.135Z,0
2018-02-22T04:49:29.813Z,0
2018-02-22T04:50:39.602Z,0
2018-02-22T04:51:49.656Z,0
2018-02-22T04:52:59.445Z,0
2018-02-22T04:54:09.250Z,0
2018-02-22T04:55:19.309Z,0
2018-02-22T04:56:29.104Z,0
2018-02-22T04:57:39.143Z,0
2018-02-22T04:58:49.200Z,0
2018-02-22T04:59:59.248Z,0
2018-02-22T05:01:09.319Z,0
2018-02-22T05:02:19.374Z,0
2018-02-22T05:03:29.428Z,0
2018-02-22T05:04:39.492Z,0
2018-02-22T05:05:49.300Z,0
2018-02-22T05:06:59.096Z,0
2018-02-22T05:08:09.166Z,0
2018-02-22T05:09:18.716Z,0
2018-02-22T05:10:28.499Z,0
2018-02-22T05:11:38.559Z,0
2018-02-22T05:12:48.378Z,0
2018-02-22T05:13:58.418Z,0
2018-02-22T05:15:08.216Z,0
2018-02-22T05:16:18.291Z,0
2018-02-22T05:17:28.087Z,0
2018-02-22T05:18:37.886Z,0
2018-02-22T05:19:47.927Z,0
2018-02-22T05:20:57.708Z,0
2018-02-22T05:22:07.779Z,0
2018-02-22T05:23:17.326Z,0
2018-02-22T05:24:27.174Z,0
2018-02-22T05:25:36.969Z,0
2018-02-22T05:26:46.761Z,0
2018-02-22T05:27:56.554Z,0
2018-02-22T05:29:06.331Z,0
2018-02-22T05:30:16.122Z,0
2018-02-22T05:31:25.907Z,0
2018-02-22T05:32:35.695Z,0
2018-02-22T05:33:45.234Z,0
2018-02-22T05:34:55.025Z,0
2018-02-22T05:36:04.835Z,0
2018-02-22T05:37:14.628Z,0
2018-02-22T05:38:24.409Z,0
2018-02-22T05:39:34.198Z,0
2018-02-22T05:40:44.008Z,0
2018-02-22T05:41:54.060Z,0
2018-02-22T05:43:03.587Z,0
2018-02-22T05:44:13.408Z,0
2018-02-22T05:45:23.467Z,0
2018-02-22T05:46:32.992Z,0
2018-02-22T05:47:42.249Z,0
2018-02-22T05:48:51.776Z,0
2018-02-22T05:50:01.563Z,0
2018-02-22T05:51:11.349Z,0
2018-02-22T05:52:20.881Z,0
2018-02-22T05:53:30.682Z,0
2018-02-22T05:54:40.475Z,0
2018-02-22T05:55:50.526Z,0
2018-02-22T05:57:00.326Z,0
2018-02-22T05:58:09.876Z,0
2018-02-22T05:59:19.928Z,0
2018-02-22T06:00:29.974Z,0
2018-02-22T06:01:40.044Z,0
2018-02-22T06:02:49.307Z,0
2018-02-22T06:03:58.580Z,5
2018-02-22T06:05:08.692Z,5
2018-02-22T06:06:18.223Z,5
2018-02-22T06:07:28.274Z,5
2018-02-22T06:08:37.806Z,5
2018-02-22T06:09:49.067Z,5
2018-02-22T06:10:58.890Z,5
2018-02-22T06:12:08.945Z,5
2018-02-22T06:13:18.223Z,10
2018-02-22T06:14:28.001Z,10
2018-02-22T06:15:37.545Z,10
2018-02-22T06:16:46.825Z,10
2018-02-22T06:17:56.883Z,10
2018-02-22T06:19:06.676Z,10
2018-02-22T06:20:16.466Z,10
2018-02-22T06:21:26.251Z,10
2018-02-22T06:22:37.031Z,10
2018-02-22T06:23:47.102Z,10
2018-02-22T06:24:57.180Z,15
2018-02-22T06:26:06.996Z,15
2018-02-22T06:27:17.043Z,15
2018-02-22T06:28:26.574Z,15
2018-02-22T06:29:36.118Z,15
2018-02-22T06:30:46.186Z,15
2018-02-22T06:31:55.988Z,20
2018-02-22T06:33:05.810Z,20
2018-02-22T06:34:15.892Z,20
2018-02-22T06:35:25.935Z,20
2018-02-22T06:36:36.775Z,20
2018-02-22T06:37:46.834Z,20
2018-02-22T06:38:56.649Z,25
2018-02-22T06:40:06.702Z,25
2018-02-22T06:41:16.760Z,25
2018-02-22T06:42:26.552Z,25
2018-02-22T06:43:36.335Z,25
2018-02-22T06:44:46.132Z,25
2018-02-22T06:45:55.988Z,30
2018-02-22T06:47:05.785Z,30
2018-02-22T06:48:15.831Z,30
2018-02-22T06:49:25.894Z,35
2018-02-22T06:50:37.148Z,35
2018-02-22T06:51:47.009Z,35
2018-02-22T06:52:57.090Z,35
2018-02-22T06:54:06.623Z,40
2018-02-22T06:55:16.147Z,40
2018-02-22T06:56:25.668Z,45
2018-02-22T06:57:35.458Z,45
2018-02-22T06:58:44.731Z,45
2018-02-22T06:59:54.803Z,45
2018-02-22T07:01:04.893Z,45
2018-02-22T07:02:14.680Z,45
2018-02-22T07:03:25.237Z,45
2018-02-22T07:04:35.051Z,50
2018-02-22T07:05:45.122Z,50
2018-02-22T07:06:54.927Z,50
2018-02-22T07:08:04.739Z,50
2018-02-22T07:09:14.827Z,50
2018-02-22T07:10:24.348Z,50
2018-02-22T07:11:34.144Z,50
2018-02-22T07:12:43.923Z,50
2018-02-22T07:13:53.764Z,50
2018-02-22T07:15:03.241Z,50
2018-02-22T07:16:13.079Z,50
2018-02-22T07:17:22.892Z,50
2018-02-22T07:18:32.949Z,50
2018-02-22T07:19:43.018Z,50
2018-02-22T07:20:52.547Z,50
2018-02-22T07:22:02.604Z,50
2018-02-22T07:23:24.326Z,50
2018-02-22T07:24:34.406Z,50
2018-02-22T07:25:44.487Z,50
2018-02-22T07:26:54.672Z,55
2018-02-22T07:28:04.726Z,55
2018-02-22T07:29:14.263Z,55
2018-02-22T07:30:24.310Z,60
2018-02-22T07:31:34.159Z,60
2018-02-22T07:32:44.195Z,65
2018-02-22T07:33:53.998Z,65
2018-02-22T07:35:04.132Z,70
2018-02-22T07:36:14.188Z,70
2018-02-22T07:37:23.462Z,75
2018-02-22T07:38:32.976Z,75
2018-02-22T07:39:42.781Z,80
2018-02-22T07:40:52.851Z,80
2018-02-22T07:42:02.381Z,80
2018-02-22T07:43:11.989Z,80
2018-02-22T07:44:22.058Z,80
2018-02-22T07:45:31.581Z,80
2018-02-22T07:46:41.369Z,85
2018-02-22T07:47:50.900Z,85
2018-02-22T07:49:00.710Z,90
2018-02-22T07:50:10.790Z,95
2018-02-22T07:51:20.846Z,95
2018-02-22T07:52:30.652Z,95
2018-02-22T07:53:40.703Z,95
2018-02-22T07:54:50.274Z,100
2018-02-22T07:56:00.057Z,105
2018-02-22T07:57:09.850Z,110
2018-02-22T07:58:19.654Z,115
2018-02-22T07:59:29.721Z,125
2018-02-22T08:00:39.517Z,135
2018-02-22T08:01:49.294Z,140
2018-02-22T08:02:58.831Z,145
2018-02-22T08:04:08.383Z,145
2018-02-22T08:05:18.440Z,140
2018-02-22T08:06:28.498Z,135
2018-02-22T08:07:38.300Z,130
2018-02-22T08:08:48.090Z,125
2018-02-22T08:09:57.923Z,115
2018-02-22T08:11:07.466Z,115
2018-02-22T08:12:17.521Z,115
2018-02-22T08:13:27.588Z,115
2018-02-22T08:14:37.133Z,115
2018-02-22T08:15:47.179Z,115
2018-02-22T08:16:56.975Z,120
2018-02-22T08:18:07.089Z,130
2018-02-22T08:19:16.886Z,140
2018-02-22T08:20:26.947Z,140
2018-02-22T08:21:36.745Z,145
2018-02-22T08:22:46.023Z,150
2018-02-22T08:23:56.085Z,155
2018-02-22T08:25:05.365Z,160
2018-02-22T08:26:15.414Z,160
2018-02-22T08:27:25.474Z,160
2018-02-22T08:28:35.540Z,160
2018-02-22T08:29:45.082Z,160
2018-02-22T08:30:55.161Z,160
2018-02-22T08:32:04.721Z,165
2018-02-22T08:33:14.780Z,165
2018-02-22T08:34:24.579Z,165
2018-02-22T08:35:33.853Z,165
2018-02-22T08:36:43.919Z,165
2018-02-22T08:37:53.465Z,160
2018-02-22T08:39:03.643Z,165
2018-02-22T08:40:13.867Z,165
2018-02-22T08:41:23.661Z,165
2018-02-22T08:42:33.477Z,165
2018-02-22T08:43:42.999Z,170
2018-02-22T08:44:52.331Z,170
2018-02-22T08:46:02.130Z,175
2018-02-22T08:47:11.399Z,180
2018-02-22T08:48:21.204Z,185
2018-02-22T08:49:31.013Z,185
2018-02-22T08:50:40.806Z,195
2018-02-22T08:51:50.872Z,190
2018-02-22T08:53:00.660Z,190
2018-02-22T08:54:10.451Z,195
2018-02-22T08:55:19.985Z,205
2018-02-22T08:56:29.788Z,210
2018-02-22T08:57:39.853Z,205
2018-02-22T08:58:49.646Z,205
2018-02-22T08:59:59.723Z,195
2018-02-22T09:01:10.742Z,180
2018-02-22T09:02:20.272Z,170
2018-02-22T09:03:30.330Z,160
2018-02-22T09:04:40.160Z,155
2018-02-22T09:05:49.951Z,150
2018-02-22T09:07:00.023Z,150
2018-02-22T09:08:10.095Z,150
2018-02-22T09:09:19.896Z,155
2018-02-22T09:10:29.949Z,155
2018-02-22T09:11:39.742Z,165
2018-02-22T09:12:49.857Z,175
2018-02-22T09:13:59.676Z,195
2018-02-22T09:15:09.743Z,205
2018-02-22T09:16:19.533Z,205
2018-02-22T09:17:29.344Z,205
2018-02-22T09:18:39.406Z,200
2018-02-22T09:19:48.942Z,195
2018-02-22T09:20:58.740Z,195
2018-02-22T09:22:08.541Z,185
2018-02-22T09:23:18.602Z,180
2018-02-22T09:24:28.686Z,175
2018-02-22T09:25:38.738Z,170
2018-02-22T09:26:48.790Z,175
2018-02-22T09:27:58.854Z,170
2018-02-22T09:29:08.676Z,170
2018-02-22T09:30:18.797Z,165
2018-02-22T09:31:28.586Z,165
2018-02-22T09:32:38.373Z,165
2018-02-22T09:33:48.160Z,160
2018-02-22T09:34:58.216Z,160
2018-02-22T09:36:08.018Z,150
2018-02-22T09:37:18.073Z,155
2018-02-22T09:38:27.666Z,160
2018-02-22T09:39:37.203Z,170
2018-02-22T09:40:46.996Z,180
2018-02-22T09:41:58.467Z,190
2018-02-22T09:43:08.310Z,200
2018-02-22T09:44:18.362Z,200
2018-02-22T09:45:28.193Z,195
2018-02-22T09:46:37.807Z,195
2018-02-22T09:47:47.615Z,195
2018-02-22T09:48:57.668Z,200
2018-02-22T09:50:07.476Z,210
2018-02-22T09:51:17.259Z,215
2018-02-22T09:52:26.787Z,220
2018-02-22T09:53:36.580Z,220
2018-02-22T09:54:46.371Z,220
2018-02-22T09:55:56.421Z,215
2018-02-22T09:57:06.231Z,215
2018-02-22T09:58:16.321Z,215
2018-02-22T09:59:26.381Z,215
2018-02-22T10:00:36.183Z,215
2018-02-22T10:01:46.257Z,215
2018-02-22T10:02:56.312Z,215
2018-02-22T10:04:06.118Z,215
2018-02-22T10:05:15.912Z,215
2018-02-22T10:06:26.015Z,215
2018-02-22T10:07:35.820Z,215
2018-02-22T10:08:45.623Z,210
2018-02-22T10:09:55.698Z,205
2018-02-22T10:11:04.995Z,200
2018-02-22T10:12:14.802Z,200
2018-02-22T10:13:24.083Z,200
2018-02-22T10:14:33.875Z,200
2018-02-22T10:15:43.946Z,200
2018-02-22T10:16:54.065Z,200
2018-02-22T10:18:04.420Z,195
2018-02-22T10:19:14.231Z,190
2018-02-22T10:20:24.296Z,180
2018-02-22T10:21:33.816Z,180
2018-02-22T10:22:43.877Z,175
2018-02-22T10:23:53.671Z,175
2018-02-22T10:25:03.761Z,165
2018-02-22T10:26:14.962Z,160
2018-02-22T10:27:24.929Z,155
2018-02-22T10:28:34.761Z,150
2018-02-22T10:29:44.813Z,150
2018-02-22T10:30:54.874Z,150
2018-02-22T10:32:04.690Z,150
2018-02-22T10:33:14.503Z,150
2018-02-22T10:34:24.284Z,155
2018-02-22T10:35:33.813Z,155
2018-02-22T10:36:43.608Z,155
2018-02-22T10:37:53.411Z,160
2018-02-22T10:39:04.371Z,160
2018-02-22T10:40:15.982Z,160
2018-02-22T10:41:26.498Z,160
2018-02-22T10:42:36.574Z,160
2018-02-22T10:43:46.626Z,160
2018-02-22T10:44:56.785Z,160
2018-02-22T10:46:06.846Z,165
2018-02-22T10:47:16.905Z,155
2018-02-22T10:48:26.977Z,155
2018-02-22T10:49:37.020Z,155
2018-02-22T10:50:47.126Z,155
2018-02-22T10:51:57.203Z,155
2018-02-22T10:53:07.000Z,155
2018-02-22T10:54:16.815Z,155
2018-02-22T10:55:26.367Z,150
2018-02-22T10:56:36.242Z,150
2018-02-22T10:57:46.066Z,155
2018-02-22T10:58:55.883Z,160
2018-02-22T11:00:05.954Z,165
2018-02-22T11:01:16.081Z,165
2018-02-22T11:02:26.384Z,165
2018-02-22T11:03:36.469Z,170
2018-02-22T11:04:46.439Z,170
2018-02-22T11:05:56.276Z,175
2018-02-22T11:07:06.090Z,175
2018-02-22T11:08:15.955Z,175
2018-02-22T11:09:26.126Z,175
2018-02-22T11:10:36.237Z,175
2018-02-22T11:11:46.042Z,175
2018-02-22T11:12:55.573Z,175
2018-02-22T11:14:05.703Z,180
2018-02-22T11:15:15.254Z,180
2018-02-22T11:16:25.050Z,185
2018-02-22T11:17:34.852Z,185
2018-02-22T11:18:44.923Z,190
2018-02-22T11:19:54.788Z,190
2018-02-22T11:21:04.607Z,195
2018-02-22T11:22:14.432Z,195
2018-02-22T11:23:24.238Z,200
2018-02-22T11:24:33.530Z,205
2018-02-22T11:25:43.331Z,205
2018-02-22T11:26:53.454Z,205
2018-02-22T11:28:03.685Z,205
2018-02-22T11:29:13.767Z,205
2018-02-22T11:30:23.845Z,210
2018-02-22T11:31:33.648Z,200
2018-02-22T11:32:43.470Z,200
2018-02-22T11:33:52.995Z,200
2018-02-22T11:35:03.081Z,195
2018-02-22T11:36:12.910Z,195
2018-02-22T11:37:23.004Z,195
2018-02-22T11:38:33.178Z,200
2018-02-22T11:39:43.001Z,195
2018-02-22T11:40:52.566Z,200
2018-02-22T11:42:02.652Z,200
2018-02-22T11:43:11.944Z,195
2018-02-22T11:44:22.029Z,195
2018-02-22T11:45:32.130Z,195
2018-02-22T11:46:42.214Z,195
2018-02-22T11:47:52.050Z,200
2018-02-22T11:49:02.270Z,200
2018-02-22T11:50:12.122Z,200
2018-02-22T11:51:22.239Z,200
2018-02-22T11:52:32.061Z,205
2018-02-22T11:53:42.134Z,205
2018-02-22T11:54:51.968Z,205
2018-02-22T11:56:01.776Z,210
2018-02-22T11:57:11.340Z,210
2018-02-22T11:58:22.036Z,215
2018-02-22T11:59:32.127Z,215
2018-02-22T12:00:42.179Z,215
2018-02-22T12:01:51.468Z,220
2018-02-22T12:03:01.539Z,225
2018-02-22T12:04:11.100Z,225
2018-02-22T12:05:21.193Z,230
2018-02-22T12:06:30.990Z,235
2018-02-22T12:07:41.062Z,235
2018-02-22T12:08:50.893Z,240
2018-02-22T12:10:00.439Z,245
2018-02-22T12:11:10.501Z,245
2018-02-22T12:12:20.585Z,245
2018-02-22T12:13:30.402Z,255
2018-02-22T12:14:40.499Z,250
2018-02-22T12:15:50.567Z,255
2018-02-22T12:17:00.636Z,255
2018-02-22T12:18:10.701Z,250
2018-02-22T12:19:20.515Z,245
2018-02-22T12:20:30.316Z,240
2018-02-22T12:21:40.389Z,235
2018-02-22T12:22:50.443Z,240
2018-02-22T12:24:00.240Z,230
2018-02-22T12:25:10.507Z,225
2018-02-22T12:26:20.594Z,225
2018-02-22T12:27:30.690Z,225
2018-02-22T12:28:41.296Z,225
2018-02-22T12:29:51.148Z,220
2018-02-22T12:31:01.241Z,220
2018-02-22T12:32:11.047Z,225
2018-02-22T12:33:21.709Z,220
2018-02-22T12:34:31.785Z,225
2018-02-22T12:35:41.608Z,220
2018-02-22T12:36:51.665Z,220
2018-02-22T12:38:01.535Z,220
2018-02-22T12:39:11.634Z,220
2018-02-22T12:43:07.773Z,215
2018-02-22T12:44:17.626Z,215
2018-02-22T12:45:27.680Z,215
2018-02-22T12:46:37.785Z,210
2018-02-22T12:47:47.864Z,205
2018-02-22T12:48:57.665Z,200
2018-02-22T12:50:07.464Z,195
2018-02-22T12:51:17.576Z,190
2018-02-22T12:52:26.850Z,185
2018-02-22T12:53:36.666Z,180
2018-02-22T12:54:46.723Z,175
2018-02-22T12:55:56.519Z,175
2018-02-22T12:57:06.036Z,170
2018-02-22T12:58:15.862Z,165
2018-02-22T12:59:25.722Z,160
2018-02-22T13:00:35.634Z,160
2018-02-22T13:01:45.197Z,160
2018-02-22T13:02:55.319Z,160
2018-02-22T13:04:06.639Z,160
2018-02-22T13:05:16.448Z,160
2018-02-22T13:06:26.311Z,160
2018-02-22T13:07:36.091Z,160
2018-02-22T13:08:46.186Z,160
2018-02-22T13:09:56.601Z,165
2018-02-22T13:11:06.670Z,165
2018-02-22T13:12:16.777Z,165
2018-02-22T13:13:26.841Z,165
2018-02-22T13:14:36.921Z,160
2018-02-22T13:15:46.995Z,160
2018-02-22T13:16:57.097Z,160
2018-02-22T13:18:07.250Z,160
2018-02-22T13:19:17.342Z,160
2018-02-22T13:20:27.169Z,160
2018-02-22T13:21:36.986Z,160
2018-02-22T13:22:46.965Z,155
2018-02-22T13:23:56.841Z,155
2018-02-22T13:25:06.399Z,155
2018-02-22T13:26:16.486Z,155
2018-02-22T13:27:26.586Z,150
2018-02-22T13:28:36.690Z,150
2018-02-22T13:29:46.522Z,150
2018-02-22T13:30:56.355Z,150
2018-02-22T13:32:06.454Z,145
2018-02-22T13:33:16.026Z,145
2018-02-22T13:34:26.350Z,140
2018-02-22T13:35:37.134Z,140
2018-02-22T13:36:48.457Z,140
2018-02-22T13:37:58.268Z,135
2018-02-22T13:39:07.834Z,135
2018-02-22T13:40:17.652Z,130
2018-02-22T13:41:27.204Z,130
2018-02-22T13:42:37.279Z,130
2018-02-22T13:43:47.375Z,130
2018-02-22T13:44:57.183Z,125
2018-02-22T13:46:07.031Z,125
2018-02-22T13:47:19.391Z,120
2018-02-22T13:48:29.458Z,120
2018-02-22T13:49:39.290Z,115
2018-02-22T13:50:49.389Z,115
2018-02-22T13:51:59.188Z,115
2018-02-22T13:53:09.032Z,110
2018-02-22T13:54:19.090Z,110
2018-02-22T13:55:29.176Z,110
2018-02-22T13:56:38.999Z,110
2018-02-22T13:57:48.565Z,110
2018-02-22T13:58:58.701Z,110
2018-02-22T14:00:08.251Z,110
2018-02-22T14:01:18.331Z,105
2018-02-22T14:02:28.141Z,105
2018-02-22T14:03:38.221Z,100
2018-02-22T14:04:48.140Z,95
2018-02-22T14:05:58.223Z,90
2018-02-22T14:07:08.304Z,85
2018-02-22T14:08:17.860Z,90
2018-02-22T14:09:27.677Z,85
2018-02-22T14:10:38.897Z,80
2018-02-22T14:11:48.962Z,80
2018-02-22T14:12:59.057Z,80
2018-02-22T14:14:08.610Z,80
2018-02-22T14:15:18.660Z,80
2018-02-22T14:16:28.762Z,80
2018-02-22T14:17:38.593Z,80
2018-02-22T14:18:48.670Z,80
2018-02-22T14:19:58.210Z,85
2018-02-22T14:21:07.756Z,85
2018-02-22T14:22:17.906Z,85
2018-02-22T14:23:28.219Z,85
2018-02-22T14:24:37.758Z,85
2018-02-22T14:25:47.592Z,85
2018-02-22T14:26:57.659Z,85
2018-02-22T14:28:07.790Z,85
2018-02-22T14:29:17.352Z,85
2018-02-22T14:30:27.203Z,85
2018-02-22T14:31:37.269Z,85
2018-02-22T14:32:47.099Z,80
2018-02-22T14:33:56.701Z,80
2018-02-22T14:35:06.779Z,80
2018-02-22T14:36:16.589Z,80
2018-02-22T14:37:26.404Z,75
2018-02-22T14:38:36.481Z,75
2018-02-22T14:39:46.589Z,70
2018-02-22T14:40:56.668Z,70
2018-02-22T14:42:06.778Z,70
2018-02-22T14:43:16.856Z,65
2018-02-22T14:44:26.656Z,65
2018-02-22T14:45:36.852Z,60
2018-02-22T14:46:46.677Z,60
2018-02-22T14:47:56.757Z,60
2018-02-22T14:49:06.316Z,60
2018-02-22T14:50:15.864Z,60
2018-02-22T14:51:25.460Z,60
2018-02-22T14:52:34.981Z,60
2018-02-22T14:53:45.063Z,60
2018-02-22T14:54:54.880Z,60
2018-02-22T14:56:04.713Z,60
2018-02-22T14:57:14.299Z,60
2018-02-22T14:58:24.118Z,55
2018-02-22T14:59:33.939Z,55
2018-02-22T15:00:45.377Z,55
2018-02-22T15:01:55.446Z,55
2018-02-22T15:03:05.539Z,55
2018-02-22T15:04:15.342Z,50
2018-02-22T15:05:25.416Z,50
2018-02-22T15:06:35.503Z,50
2018-02-22T15:07:45.641Z,50
2018-02-22T15:08:55.785Z,50
2018-02-22T15:10:06.094Z,50
2018-02-22T15:11:15.910Z,50
2018-02-22T15:12:25.718Z,45
2018-02-22T15:13:35.552Z,45
2018-02-22T15:14:45.349Z,45
2018-02-22T15:15:55.179Z,45
2018-02-22T15:17:04.995Z,45
2018-02-22T15:18:14.801Z,40
2018-02-22T15:19:24.874Z,40
2018-02-22T15:20:34.949Z,40
2018-02-22T15:21:44.784Z,40
2018-02-22T15:22:54.854Z,40
2018-02-22T15:24:04.407Z,40
2018-02-22T15:25:14.480Z,35
2018-02-22T15:26:24.617Z,35
2018-02-22T15:27:34.715Z,35
2018-02-22T15:28:44.782Z,30
2018-02-22T15:29:54.853Z,30
2018-02-22T15:31:04.401Z,30
2018-02-22T15:32:14.560Z,25
2018-02-22T15:33:23.836Z,25
2018-02-22T15:34:33.922Z,25
2018-02-22T15:35:44.013Z,25
2018-02-22T15:36:53.834Z,20
2018-02-22T15:38:03.681Z,20
2018-02-22T15:39:13.869Z,20
2018-02-22T15:40:23.735Z,20
2018-02-22T15:41:33.551Z,20
2018-02-22T15:42:43.641Z,20
2018-02-22T15:43:53.514Z,15
2018-02-22T15:45:03.350Z,15
2018-02-22T15:46:13.451Z,15
2018-02-22T15:47:23.527Z,15
2018-02-22T15:48:33.060Z,15
2018-02-22T15:49:42.952Z,15
2018-02-22T15:50:53.028Z,15
2018-02-22T15:52:02.872Z,15
2018-02-22T15:53:12.933Z,10
2018-02-22T15:54:22.996Z,10
2018-02-22T15:55:33.087Z,10
2018-02-22T15:56:43.177Z,10
2018-02-22T15:57:53.242Z,10
2018-02-22T15:59:03.345Z,10
2018-02-22T16:00:13.419Z,10
2018-02-22T16:01:23.501Z,10
2018-02-22T16:02:33.304Z,10
2018-02-22T16:03:42.871Z,10
2018-02-22T16:04:52.952Z,10
2018-02-22T16:06:03.025Z,10
2018-02-22T16:07:13.156Z,10
2018-02-22T16:08:23.347Z,10
2018-02-22T16:09:33.143Z,10
2018-02-22T16:10:42.968Z,10
2018-02-22T16:11:53.055Z,10
2018-02-22T16:13:03.176Z,10
2018-02-22T16:14:12.852Z,10
2018-02-22T16:15:22.677Z,10
2018-02-22T16:16:32.800Z,10
2018-02-22T16:17:42.332Z,10
2018-02-22T16:18:52.198Z,5
2018-02-22T16:20:01.769Z,5
2018-02-22T16:21:11.652Z,5
2018-02-22T16:22:21.470Z,5
2018-02-22T16:23:31.523Z,5
2018-02-22T16:24:41.093Z,5
2018-02-22T16:25:50.907Z,5
2018-02-22T16:27:00.776Z,5
2018-02-22T16:28:11.782Z,0
2018-02-22T16:29:21.865Z,0
2018-02-22T16:30:31.968Z,0
2018-02-22T16:31:42.040Z,0
2018-02-22T16:32:52.003Z,0
2018-02-22T16:34:01.728Z,0
2018-02-22T16:35:11.448Z,0
2018-02-22T16:36:21.256Z,0
2018-02-22T16:37:31.531Z,0
2018-02-22T16:38:41.657Z,0
2018-02-22T16:39:51.470Z,0
2018-02-22T16:41:01.291Z,0
2018-02-22T16:42:11.369Z,0
2018-02-22T16:43:21.196Z,0
2018-02-22T16:44:31.028Z,0
2018-02-22T16:45:41.094Z,0
2018-02-22T16:46:51.178Z,0
2018-02-22T16:48:00.757Z,0
2018-02-22T16:49:10.826Z,0
2018-02-22T16:50:20.724Z,0
2018-02-22T16:51:30.813Z,0
2018-02-22T16:52:40.642Z,0
2018-02-22T16:53:50.736Z,0
2018-02-22T16:55:00.037Z,0
2018-02-22T16:56:09.607Z,0
2018-02-22T16:57:19.696Z,0
2018-02-22T16:58:29.798Z,0
2018-02-22T16:59:39.888Z,0
2018-02-22T17:00:50.098Z,0
2018-02-22T17:02:00.248Z,0
2018-02-22T17:03:10.323Z,0
2018-02-22T17:04:20.416Z,0
2018-02-22T17:05:30.532Z,0
2018-02-22T17:06:40.352Z,0
2018-02-22T17:07:50.221Z,0
2018-02-22T17:09:00.053Z,0
2018-02-22T17:10:09.866Z,0
2018-02-22T17:11:19.984Z,0